Time;durP1;ratioP1;P1;durP2;ratioP2;P2;SDS_P1;SDS_P2;PMS_P1;PMS_P2;Temp;Humidity;BMP_temperature;BMP_pressure;BME280_temperature;BME280_humidity;BME280_pressure;Samples;Min_cycle;Max_cycle;Signal;HPM_P1;HPM_P2
2022/03/30 00:01:38;;;;;;;98.32;48.28;;;11.50;76.80;;;;;;6214397;23;20020;-91
2022/03/30 00:04:05;;;;;;;86.45;48.28;;;11.40;76.80;;;;;;6215510;23;20052;-92
2022/03/30 00:06:32;;;;;;;91.20;48.13;;;11.40;76.80;;;;;;6214743;23;20074;-92
2022/03/30 00:08:59;;;;;;;87.78;47.47;;;11.40;76.90;;;;;;6214527;23;20528;-91
2022/03/30 00:11:26;;;;;;;97.38;47.92;;;11.40;76.90;;;;;;6215012;23;20025;-93
2022/03/30 00:13:53;;;;;;;87.28;47.47;;;11.40;76.90;;;;;;6188958;23;20039;-91
2022/03/30 00:16:20;;;;;;;82.03;45.90;;;11.40;76.90;;;;;;6214636;23;20024;-91
2022/03/30 00:18:47;;;;;;;90.57;46.53;;;11.40;76.90;;;;;;6215059;23;20017;-92
2022/03/30 00:21:14;;;;;;;87.97;47.47;;;11.40;76.90;;;;;;6188835;23;20029;-92
2022/03/30 00:23:41;;;;;;;90.82;47.88;;;11.30;76.90;;;;;;6214394;23;20379;-92
2022/03/30 00:26:09;;;;;;;85.80;45.65;;;11.30;76.90;;;;;;6215038;23;20052;-92
2022/03/30 00:28:36;;;;;;;98.38;49.30;;;11.30;76.90;;;;;;6215403;23;20394;-91
2022/03/30 00:31:03;;;;;;;85.57;44.97;;;11.30;77.00;;;;;;6214370;23;20410;-92
2022/03/30 00:33:30;;;;;;;83.13;45.40;;;11.20;76.90;;;;;;6214578;23;20032;-94
2022/03/30 00:35:57;;;;;;;90.60;48.33;;;11.20;76.90;;;;;;6214752;23;20020;-92
2022/03/30 00:38:24;;;;;;;92.38;48.42;;;11.20;77.00;;;;;;6214742;23;20066;-91
2022/03/30 00:40:51;;;;;;;91.70;48.65;;;11.20;77.00;;;;;;6214860;23;20395;-91
2022/03/30 00:43:18;;;;;;;97.38;47.65;;;11.20;77.00;;;;;;6215070;23;20083;-91
2022/03/30 00:45:45;;;;;;;92.45;48.13;;;11.20;77.00;;;;;;6187822;23;20549;-93
2022/03/30 00:48:12;;;;;;;90.43;48.03;;;11.10;77.00;;;;;;6216085;23;20028;-91
2022/03/30 00:50:39;;;;;;;93.85;48.80;;;11.10;77.00;;;;;;6190111;23;20016;-93
2022/03/30 00:53:07;;;;;;;84.85;46.95;;;11.10;77.00;;;;;;6190293;23;20078;-91
2022/03/30 00:55:34;;;;;;;85.97;48.08;;;11.10;77.00;;;;;;6190053;23;20021;-92
2022/03/30 00:58:02;;;;;;;90.38;48.58;;;11.00;77.00;;;;;;6216519;23;20335;-93
2022/03/30 01:00:29;;;;;;;93.03;47.78;;;11.00;77.00;;;;;;6216238;23;20104;-93
2022/03/30 01:02:56;;;;;;;89.72;47.25;;;11.10;77.10;;;;;;6216303;23;20100;-92
2022/03/30 01:05:24;;;;;;;92.22;49.60;;;11.00;77.10;;;;;;6216700;23;20020;-92
2022/03/30 01:07:51;;;;;;;91.95;48.58;;;11.00;77.10;;;;;;6216292;23;20390;-91
2022/03/30 01:10:19;;;;;;;95.82;49.65;;;11.00;77.10;;;;;;6216254;23;20017;-91
2022/03/30 01:12:52;;;;;;;86.88;47.42;;;11.00;77.10;;;;;;6216159;23;20024;-92
2022/03/30 01:15:19;;;;;;;90.05;48.85;;;11.00;77.10;;;;;;6216134;23;20023;-92
2022/03/30 01:17:47;;;;;;;90.35;48.70;;;11.00;77.10;;;;;;6215548;23;20024;-93
2022/03/30 01:20:18;;;;;;;96.40;49.83;;;10.90;77.10;;;;;;6216398;23;20025;-91
2022/03/30 01:22:45;;;;;;;96.88;49.67;;;10.90;77.10;;;;;;6189757;23;20021;-91
2022/03/30 01:25:12;;;;;;;91.07;49.38;;;10.90;77.00;;;;;;6190260;23;20024;-91
2022/03/30 01:27:39;;;;;;;90.07;47.33;;;10.90;77.00;;;;;;6216553;23;20028;-92
2022/03/30 01:33:16;;;;;;;90.70;46.00;;;10.90;77.00;;;;;;6124205;23;20169;-92
2022/03/30 01:35:43;;;;;;;87.90;45.55;;;10.90;76.90;;;;;;6124257;23;20539;-93
2022/03/30 01:38:10;;;;;;;89.18;45.90;;;10.90;76.80;;;;;;6123983;23;20029;-91
2022/03/30 01:40:38;;;;;;;90.28;46.85;;;10.90;76.80;;;;;;6100062;23;20030;-91
2022/03/30 01:43:05;;;;;;;87.28;46.67;;;10.80;76.80;;;;;;6123988;23;20029;-92
2022/03/30 01:45:32;;;;;;;93.47;46.65;;;10.80;76.80;;;;;;6123756;23;20591;-92
2022/03/30 01:48:00;;;;;;;83.35;45.92;;;10.80;76.80;;;;;;6124445;23;20061;-92
2022/03/30 01:50:29;;;;;;;91.72;46.20;;;10.70;76.70;;;;;;6124374;23;20062;-92
2022/03/30 01:52:56;;;;;;;91.65;46.25;;;10.60;76.70;;;;;;6123771;23;20032;-93
2022/03/30 01:55:23;;;;;;;88.22;45.88;;;10.70;76.70;;;;;;6124339;23;20158;-92
2022/03/30 01:57:50;;;;;;;83.38;46.92;;;10.60;76.70;;;;;;6099543;23;20022;-93
2022/03/30 02:00:18;;;;;;;90.63;46.40;;;10.60;76.70;;;;;;6123565;23;20025;-92
2022/03/30 02:02:46;;;;;;;84.53;45.92;;;10.60;76.70;;;;;;6099788;23;20026;-91
2022/03/30 02:05:16;;;;;;;80.90;45.08;;;10.60;76.80;;;;;;6124361;23;20021;-93
2022/03/30 02:07:43;;;;;;;81.93;44.65;;;10.50;76.70;;;;;;6184160;23;20020;-92
2022/03/30 02:10:10;;;;;;;82.75;43.75;;;10.50;76.80;;;;;;6216570;23;20017;-94
2022/03/30 02:12:38;;;;;;;84.75;44.65;;;10.50;76.80;;;;;;6189232;23;20474;-91
2022/03/30 02:15:06;;;;;;;81.80;46.13;;;10.40;76.80;;;;;;6215240;23;20017;-91
2022/03/30 02:17:33;;;;;;;88.20;44.25;;;10.40;76.80;;;;;;6216083;23;20025;-91
2022/03/30 02:20:00;;;;;;;86.07;46.55;;;10.40;76.80;;;;;;6215682;23;20020;-93
2022/03/30 02:22:27;;;;;;;81.40;45.03;;;10.40;76.80;;;;;;6215442;23;20020;-93
2022/03/30 02:24:54;;;;;;;81.05;44.58;;;10.40;76.80;;;;;;6215616;23;20012;-92
2022/03/30 02:27:22;;;;;;;87.25;45.60;;;10.40;76.80;;;;;;6215655;23;20082;-92
2022/03/30 02:29:50;;;;;;;86.03;45.80;;;10.40;76.90;;;;;;6189318;23;20024;-93
2022/03/30 02:32:21;;;;;;;82.90;43.63;;;10.30;76.90;;;;;;6189980;23;20518;-92
2022/03/30 02:34:49;;;;;;;87.90;44.83;;;10.40;76.90;;;;;;6215205;23;20024;-92
2022/03/30 02:37:17;;;;;;;77.95;43.38;;;10.30;76.90;;;;;;6215368;23;20079;-93
2022/03/30 02:39:44;;;;;;;79.65;43.70;;;10.30;76.90;;;;;;6215574;23;20020;-92
2022/03/30 02:42:12;;;;;;;87.28;44.55;;;10.30;76.90;;;;;;6188814;23;20027;-93
2022/03/30 02:44:39;;;;;;;74.32;41.65;;;10.30;76.90;;;;;;6215554;23;20024;-92
2022/03/30 02:47:07;;;;;;;83.13;43.03;;;10.30;76.90;;;;;;6215882;23;20024;-91
2022/03/30 02:49:34;;;;;;;76.32;42.80;;;10.20;76.90;;;;;;6215751;23;20024;-92
2022/03/30 02:52:02;;;;;;;82.32;45.42;;;10.20;76.90;;;;;;6215530;23;20096;-91
2022/03/30 02:54:29;;;;;;;80.82;43.08;;;10.20;77.00;;;;;;6215423;23;20024;-92
2022/03/30 02:56:56;;;;;;;79.45;43.25;;;10.20;77.00;;;;;;6188814;23;20540;-91
2022/03/30 02:59:23;;;;;;;76.05;42.90;;;10.20;77.00;;;;;;6215030;23;20463;-92
2022/03/30 03:01:51;;;;;;;78.50;42.25;;;10.20;77.00;;;;;;6215158;23;20392;-92
2022/03/30 03:04:18;;;;;;;76.15;42.70;;;10.20;77.00;;;;;;6215798;23;20078;-93
2022/03/30 03:06:45;;;;;;;78.70;42.75;;;10.20;77.00;;;;;;6214630;23;20078;-91
2022/03/30 03:09:12;;;;;;;77.43;43.17;;;10.10;77.00;;;;;;6215329;23;20079;-92
2022/03/30 03:11:39;;;;;;;82.78;42.00;;;10.20;77.00;;;;;;6214908;23;20398;-91
2022/03/30 03:14:07;;;;;;;79.00;45.35;;;10.10;77.00;;;;;;6189180;23;20024;-91
2022/03/30 03:16:34;;;;;;;75.75;42.80;;;10.10;77.10;;;;;;6215663;23;20055;-92
2022/03/30 03:19:02;;;;;;;75.47;41.10;;;10.10;77.10;;;;;;6215494;23;20024;-92
2022/03/30 03:21:29;;;;;;;78.13;44.58;;;10.10;77.10;;;;;;6214819;23;20545;-92
2022/03/30 03:23:56;;;;;;;74.55;43.55;;;10.10;77.10;;;;;;6188904;23;20028;-92
2022/03/30 03:26:23;;;;;;;77.55;43.58;;;10.10;77.10;;;;;;6215194;23;20020;-91
2022/03/30 03:28:50;;;;;;;79.80;43.58;;;10.00;77.20;;;;;;6215314;23;20047;-93
2022/03/30 03:31:17;;;;;;;77.53;44.95;;;10.00;77.20;;;;;;6215376;23;20075;-92
2022/03/30 03:33:44;;;;;;;76.47;42.92;;;10.00;77.20;;;;;;6215358;23;20024;-93
2022/03/30 03:36:11;;;;;;;79.13;42.67;;;10.00;77.20;;;;;;6214739;23;20028;-92
2022/03/30 03:38:38;;;;;;;74.85;42.13;;;10.00;77.20;;;;;;6215550;23;20051;-92
2022/03/30 03:41:06;;;;;;;74.60;43.85;;;10.00;77.30;;;;;;6214967;23;20032;-92
2022/03/30 03:43:34;;;;;;;74.75;42.80;;;10.00;77.30;;;;;;6214864;23;20031;-92
2022/03/30 03:46:01;;;;;;;69.78;41.70;;;10.00;77.30;;;;;;6215196;23;20028;-93
2022/03/30 03:48:28;;;;;;;72.63;43.20;;;10.00;77.30;;;;;;6188781;23;20016;-92
2022/03/30 03:50:55;;;;;;;72.55;40.58;;;10.00;77.40;;;;;;6188716;23;20024;-92
2022/03/30 03:53:22;;;;;;;73.25;42.90;;;10.00;77.40;;;;;;6188550;23;20399;-91
2022/03/30 03:55:49;;;;;;;73.10;40.50;;;10.00;77.40;;;;;;6188677;23;20023;-92
2022/03/30 03:58:16;;;;;;;73.38;43.33;;;10.00;77.40;;;;;;6188323;23;20040;-93
2022/03/30 04:00:43;;;;;;;74.13;40.75;;;10.00;77.40;;;;;;6189058;23;20024;-93
2022/03/30 04:03:10;;;;;;;72.28;41.28;;;10.00;77.40;;;;;;6214820;23;20035;-93
2022/03/30 04:05:40;;;;;;;74.25;42.75;;;10.00;77.40;;;;;;6214815;23;20332;-92
2022/03/30 04:08:08;;;;;;;71.30;42.28;;;10.00;77.40;;;;;;6214640;23;20028;-92
2022/03/30 04:10:35;;;;;;;69.47;41.53;;;10.00;77.40;;;;;;6214746;23;20075;-92
2022/03/30 04:13:06;;;;;;;75.78;42.38;;;10.00;77.40;;;;;;6189082;23;20020;-92
2022/03/30 04:15:34;;;;;;;70.53;44.13;;;10.00;77.40;;;;;;6214667;23;20043;-92
2022/03/30 04:18:03;;;;;;;68.30;43.25;;;10.00;77.40;;;;;;6214808;23;20544;-93
2022/03/30 04:20:31;;;;;;;71.15;45.35;;;10.00;77.40;;;;;;6188641;23;20017;-94
2022/03/30 04:22:58;;;;;;;66.78;42.58;;;9.90;77.30;;;;;;6215185;23;20027;-93
2022/03/30 04:25:26;;;;;;;68.95;43.80;;;9.90;77.30;;;;;;6216875;23;20024;-91
2022/03/30 04:27:53;;;;;;;67.95;42.90;;;9.90;77.30;;;;;;6190825;23;20336;-91
2022/03/30 04:30:22;;;;;;;68.55;42.33;;;9.90;77.20;;;;;;6190823;23;20027;-92
2022/03/30 04:32:49;;;;;;;71.70;44.08;;;9.90;77.20;;;;;;6217205;23;20017;-93
2022/03/30 04:35:18;;;;;;;71.00;44.10;;;9.90;77.20;;;;;;6216193;23;20033;-92
2022/03/30 04:37:45;;;;;;;65.07;42.25;;;9.90;77.20;;;;;;6216730;23;20017;-91
2022/03/30 04:40:12;;;;;;;63.58;41.90;;;9.90;77.20;;;;;;6217237;23;20020;-93
2022/03/30 04:42:39;;;;;;;66.68;41.97;;;9.90;77.20;;;;;;6216459;23;20336;-92
2022/03/30 04:45:07;;;;;;;62.60;41.45;;;9.90;77.20;;;;;;6216878;23;20029;-93
2022/03/30 04:47:34;;;;;;;68.38;42.65;;;9.90;77.10;;;;;;6216984;23;20017;-92
2022/03/30 04:50:02;;;;;;;61.30;41.60;;;9.90;77.10;;;;;;6215917;23;20071;-91
2022/03/30 04:52:29;;;;;;;65.93;42.42;;;9.90;77.10;;;;;;6216206;23;20055;-93
2022/03/30 04:54:56;;;;;;;71.38;42.78;;;9.80;77.10;;;;;;6216234;23;20017;-92
2022/03/30 04:57:22;;;;;;;62.63;43.25;;;9.90;77.00;;;;;;6216695;23;20024;-91
2022/03/30 04:59:49;;;;;;;60.25;41.83;;;9.90;77.00;;;;;;6216832;23;20021;-93
2022/03/30 05:02:16;;;;;;;64.55;42.75;;;9.90;77.00;;;;;;6216275;23;20066;-92
2022/03/30 05:04:43;;;;;;;65.60;43.53;;;9.80;76.90;;;;;;6216657;23;20020;-93
2022/03/30 05:07:10;;;;;;;68.07;44.35;;;9.80;76.90;;;;;;6216082;23;20386;-92
2022/03/30 05:09:37;;;;;;;59.22;41.50;;;9.80;76.90;;;;;;6190635;23;20082;-92
2022/03/30 05:12:04;;;;;;;61.95;43.25;;;9.70;76.90;;;;;;6190130;23;20020;-93
2022/03/30 05:14:32;;;;;;;62.55;41.83;;;9.70;76.90;;;;;;6216714;23;20046;-91
2022/03/30 05:17:00;;;;;;;59.35;41.95;;;9.70;76.80;;;;;;6216693;23;20075;-93
2022/03/30 05:19:27;;;;;;;60.53;42.00;;;9.70;76.80;;;;;;6216324;23;20021;-92
2022/03/30 05:21:54;;;;;;;60.38;41.17;;;9.70;76.80;;;;;;6216325;23;20079;-93
2022/03/30 05:24:21;;;;;;;59.10;39.88;;;9.70;76.80;;;;;;6216344;23;20024;-92
2022/03/30 05:26:48;;;;;;;61.25;42.38;;;9.70;76.80;;;;;;6216228;23;20024;-93
2022/03/30 05:29:15;;;;;;;62.20;41.03;;;9.70;76.80;;;;;;6216597;23;20021;-93
2022/03/30 05:31:42;;;;;;;61.58;42.20;;;9.70;76.80;;;;;;6216457;23;20075;-93
2022/03/30 05:34:29;;;;;;;61.75;42.83;;;9.60;76.80;;;;;;6215274;23;20024;-92
2022/03/30 05:36:59;;;;;;;61.97;41.33;;;9.60;76.70;;;;;;6215975;23;20024;-92
2022/03/30 05:39:26;;;;;;;63.70;42.65;;;9.60;76.70;;;;;;6190081;23;20024;-93
2022/03/30 05:41:53;;;;;;;60.58;42.08;;;9.60;76.70;;;;;;6216372;23;20407;-92
2022/03/30 05:44:21;;;;;;;59.67;40.22;;;9.60;76.70;;;;;;6216359;23;20336;-92
2022/03/30 05:46:48;;;;;;;59.42;42.38;;;9.60;76.70;;;;;;6216418;23;20021;-92
2022/03/30 05:49:16;;;;;;;58.03;40.88;;;9.60;76.70;;;;;;6216128;23;20090;-92
2022/03/30 05:51:43;;;;;;;54.80;39.58;;;9.50;76.60;;;;;;6215693;23;20075;-91
2022/03/30 05:54:09;;;;;;;54.88;40.65;;;9.50;76.60;;;;;;6216415;23;20324;-92
2022/03/30 05:59:22;;;;;;;58.45;41.65;;;9.50;76.60;;;;;;6216528;23;20067;-92
2022/03/30 06:01:49;;;;;;;58.10;41.00;;;9.50;76.60;;;;;;6216035;23;20039;-94
2022/03/30 06:04:16;;;;;;;62.28;41.50;;;9.50;76.60;;;;;;6215293;23;20025;-92
2022/03/30 06:06:43;;;;;;;54.85;39.55;;;9.50;76.60;;;;;;6190215;23;20025;-93
2022/03/30 06:09:10;;;;;;;61.75;41.30;;;9.50;76.60;;;;;;6216093;23;20020;-92
2022/03/30 06:11:37;;;;;;;58.05;41.63;;;9.50;76.60;;;;;;6215604;23;20020;-92
2022/03/30 06:14:04;;;;;;;59.90;41.78;;;9.50;76.60;;;;;;6215785;23;20091;-93
2022/03/30 06:16:31;;;;;;;58.13;40.67;;;9.50;76.60;;;;;;6216142;23;20025;-92
2022/03/30 06:18:58;;;;;;;61.67;41.47;;;9.50;76.60;;;;;;6188853;23;20020;-92
2022/03/30 06:21:26;;;;;;;60.85;41.08;;;9.50;76.60;;;;;;6215840;23;20537;-93
2022/03/30 06:23:53;;;;;;;59.30;40.13;;;9.50;76.50;;;;;;6215475;23;20021;-92
2022/03/30 06:26:20;;;;;;;56.83;40.60;;;9.50;76.50;;;;;;6215988;23;20017;-92
2022/03/30 06:28:47;;;;;;;59.58;41.35;;;9.50;76.50;;;;;;6215343;23;20328;-92
2022/03/30 06:31:17;;;;;;;58.35;40.75;;;9.50;76.50;;;;;;6215017;23;20020;-92
2022/03/30 06:33:45;;;;;;;57.92;40.08;;;9.50;76.40;;;;;;6214483;23;20017;-92
2022/03/30 06:36:13;;;;;;;61.75;41.80;;;9.50;76.40;;;;;;6215547;23;20098;-91
2022/03/30 06:38:42;;;;;;;65.10;41.95;;;9.50;76.30;;;;;;6216131;23;20025;-93
2022/03/30 06:41:10;;;;;;;62.28;41.30;;;9.50;76.30;;;;;;6215176;23;20530;-90
2022/03/30 06:43:38;;;;;;;63.92;43.17;;;9.50;76.20;;;;;;6215526;23;20399;-90
2022/03/30 06:46:05;;;;;;;60.22;41.47;;;9.50;76.10;;;;;;6215815;23;20075;-92
2022/03/30 06:48:32;;;;;;;63.40;42.92;;;9.50;76.10;;;;;;6215362;23;20414;-90
2022/03/30 06:50:59;;;;;;;59.55;41.58;;;9.50;76.00;;;;;;6215662;23;20067;-90
2022/03/30 06:53:26;;;;;;;64.63;43.50;;;9.50;75.90;;;;;;6215876;23;20082;-91
2022/03/30 06:55:53;;;;;;;64.22;43.75;;;9.50;75.90;;;;;;6215832;23;20024;-91
2022/03/30 06:58:22;;;;;;;68.25;43.20;;;9.50;75.90;;;;;;6216166;23;20027;-91
2022/03/30 07:00:50;;;;;;;63.97;42.50;;;9.50;75.80;;;;;;6214956;23;20024;-90
2022/03/30 07:03:17;;;;;;;63.70;41.22;;;9.50;75.80;;;;;;6214266;23;20024;-89
2022/03/30 07:05:45;;;;;;;62.38;41.78;;;9.50;75.70;;;;;;6188784;23;20025;-88
2022/03/30 07:10:57;;;;;;;64.28;42.92;;;9.50;75.50;;;;;;6213977;23;20024;-90
2022/03/30 07:13:24;;;;;;;65.18;42.90;;;9.40;75.40;;;;;;6188492;23;20086;-89
2022/03/30 07:15:51;;;;;;;60.30;41.58;;;9.40;75.30;;;;;;6188322;23;20021;-88
2022/03/30 07:18:19;;;;;;;62.42;41.78;;;9.50;75.20;;;;;;6213491;23;20355;-88
2022/03/30 07:20:46;;;;;;;61.80;42.90;;;9.50;75.10;;;;;;6188401;23;20021;-89
2022/03/30 07:23:14;;;;;;;67.07;42.20;;;9.40;75.00;;;;;;6214258;23;20020;-90
2022/03/30 07:25:41;;;;;;;65.18;42.00;;;9.40;74.90;;;;;;6214190;23;20020;-90
2022/03/30 07:28:08;;;;;;;61.40;41.65;;;9.40;74.80;;;;;;6188258;23;20090;-91
2022/03/30 07:30:37;;;;;;;60.10;41.35;;;9.40;74.70;;;;;;6214737;23;20024;-89
2022/03/30 07:33:04;;;;;;;61.15;42.20;;;9.40;74.60;;;;;;6213779;23;20402;-89
2022/03/30 07:35:32;;;;;;;74.13;42.30;;;9.40;74.50;;;;;;6188076;23;20083;-89
2022/03/30 07:38:01;;;;;;;59.53;41.90;;;9.40;74.40;;;;;;6213459;23;20390;-89
2022/03/30 07:40:29;;;;;;;63.85;41.70;;;9.40;74.40;;;;;;6213492;23;20533;-89
2022/03/30 07:42:57;;;;;;;63.47;40.85;;;9.40;74.20;;;;;;6214501;23;20024;-88
2022/03/30 07:45:25;;;;;;;62.47;41.05;;;9.40;74.10;;;;;;6213990;23;20021;-89
2022/03/30 07:47:52;;;;;;;72.95;41.88;;;9.40;74.00;;;;;;6213623;23;20024;-89
2022/03/30 07:50:19;;;;;;;59.00;41.25;;;9.40;74.00;;;;;;6188188;23;20027;-89
2022/03/30 07:52:46;;;;;;;63.70;41.90;;;9.40;73.90;;;;;;6188183;23;20021;-88
2022/03/30 07:55:14;;;;;;;66.88;41.47;;;9.40;73.80;;;;;;6214250;23;20078;-88
2022/03/30 07:57:42;;;;;;;68.80;43.17;;;9.40;73.70;;;;;;6189577;23;20020;-89
2022/03/30 08:00:17;;;;;;;61.85;40.60;;;9.40;73.70;;;;;;6216406;23;20079;-89
2022/03/30 08:02:45;;;;;;;65.47;41.35;;;9.40;73.60;;;;;;6189636;23;20044;-89
2022/03/30 08:05:13;;;;;;;62.30;40.35;;;9.40;73.50;;;;;;6216509;23;20020;-89
2022/03/30 08:07:45;;;;;;;59.35;41.05;;;9.50;73.50;;;;;;6216069;23;20020;-89
2022/03/30 08:10:13;;;;;;;62.45;40.70;;;9.50;73.40;;;;;;6216131;23;20021;-89
2022/03/30 08:12:40;;;;;;;63.47;42.03;;;9.50;73.40;;;;;;6216281;23;20021;-88
2022/03/30 08:15:12;;;;;;;64.57;41.13;;;9.50;73.30;;;;;;6189713;23;20024;-89
2022/03/30 08:17:39;;;;;;;66.32;41.30;;;9.50;73.20;;;;;;6215336;23;20509;-88
2022/03/30 08:20:07;;;;;;;65.43;39.80;;;9.50;73.20;;;;;;6189419;23;20475;-87
2022/03/30 08:22:34;;;;;;;68.40;41.80;;;9.50;73.30;;;;;;6189435;23;20498;-89
2022/03/30 08:25:07;;;;;;;62.90;42.63;;;9.50;73.30;;;;;;6189142;23;20032;-89
2022/03/30 08:27:35;;;;;;;67.93;42.30;;;9.50;73.20;;;;;;6216045;23;20025;-89
2022/03/30 08:30:05;;;;;;;63.08;42.58;;;9.60;73.10;;;;;;6215083;23;20024;-89
2022/03/30 08:32:33;;;;;;;57.75;40.40;;;9.60;73.10;;;;;;6215228;23;20025;-88
2022/03/30 08:35:03;;;;;;;60.28;41.42;;;9.60;73.00;;;;;;6215751;23;20020;-90
2022/03/30 08:37:30;;;;;;;67.30;43.88;;;9.70;72.90;;;;;;6189670;23;20020;-88
2022/03/30 08:39:58;;;;;;;59.15;41.05;;;9.70;72.90;;;;;;6215312;23;20366;-88
2022/03/30 08:42:25;;;;;;;61.05;39.35;;;9.70;72.80;;;;;;6216065;23;20024;-89
2022/03/30 08:44:52;;;;;;;59.13;40.85;;;9.70;72.70;;;;;;6215480;23;20070;-90
2022/03/30 08:47:19;;;;;;;66.65;42.15;;;9.80;72.60;;;;;;6215501;23;20024;-88
2022/03/30 08:49:50;;;;;;;61.03;43.05;;;9.80;72.60;;;;;;6215104;23;20646;-88
2022/03/30 08:52:18;;;;;;;63.20;41.67;;;9.80;72.50;;;;;;6189642;23;20036;-88
2022/03/30 08:54:49;;;;;;;59.45;41.95;;;9.80;72.40;;;;;;6215993;23;20025;-89
2022/03/30 08:57:17;;;;;;;69.28;43.53;;;9.90;72.40;;;;;;6216234;23;20055;-89
2022/03/30 09:00:03;;;;;;;62.88;43.78;;;9.90;72.30;;;;;;6215412;23;20021;-88
2022/03/30 09:02:42;;;;;;;64.50;43.35;;;9.90;72.30;;;;;;6215425;23;20506;-88
2022/03/30 09:05:14;;;;;;;60.95;40.70;;;9.90;72.20;;;;;;6189426;23;20031;-89
2022/03/30 09:07:43;;;;;;;68.25;44.35;;;9.90;72.20;;;;;;6215378;23;20070;-89
2022/03/30 09:10:22;;;;;;;65.65;45.08;;;9.90;72.20;;;;;;6189678;23;20025;-89
2022/03/30 09:12:51;;;;;;;71.18;45.60;;;9.90;72.20;;;;;;6215682;23;20079;-88
2022/03/30 09:15:20;;;;;;;66.78;43.15;;;9.90;72.20;;;;;;6215911;23;20020;-89
2022/03/30 09:17:58;;;;;;;68.03;44.72;;;9.90;72.10;;;;;;6215589;23;20471;-89
2022/03/30 09:20:34;;;;;;;65.60;45.33;;;9.90;72.10;;;;;;6215944;23;20100;-89
2022/03/30 09:23:01;;;;;;;69.55;45.55;;;9.90;72.10;;;;;;6215500;23;20541;-88
2022/03/30 09:25:47;;;;;;;63.67;44.03;;;9.90;72.10;;;;;;6216628;23;20396;-88
2022/03/30 09:28:21;;;;;;;67.35;43.42;;;9.90;72.10;;;;;;6215213;23;20036;-88
2022/03/30 09:30:49;;;;;;;61.08;40.50;;;10.00;72.10;;;;;;6189244;23;20499;-89
2022/03/30 09:33:18;;;;;;;65.85;44.70;;;9.90;72.10;;;;;;6215889;23;20021;-88
2022/03/30 09:35:46;;;;;;;69.28;43.78;;;9.90;72.10;;;;;;6215425;23;20072;-89
2022/03/30 09:38:16;;;;;;;58.58;43.05;;;10.00;72.20;;;;;;6189432;23;20696;-89
2022/03/30 09:40:46;;;;;;;61.50;43.33;;;10.00;72.20;;;;;;6215873;23;20399;-88
2022/03/30 09:43:25;;;;;;;64.00;43.85;;;10.00;72.30;;;;;;6215508;23;20024;-89
2022/03/30 09:46:03;;;;;;;60.20;43.60;;;9.90;72.30;;;;;;6215591;23;20028;-88
2022/03/30 09:48:34;;;;;;;66.00;44.55;;;10.00;72.40;;;;;;6215687;23;20023;-89
2022/03/30 09:51:06;;;;;;;63.30;43.35;;;10.00;72.40;;;;;;6215365;23;20031;-88
2022/03/30 09:53:35;;;;;;;69.25;44.60;;;10.00;72.40;;;;;;6189311;23;20475;-89
2022/03/30 09:56:07;;;;;;;62.08;43.15;;;10.00;72.50;;;;;;6215319;23;20023;-88
2022/03/30 09:58:36;;;;;;;66.28;43.88;;;10.00;72.50;;;;;;6215685;23;20024;-89
2022/03/30 10:01:08;;;;;;;69.63;45.05;;;10.00;72.60;;;;;;6189182;23;20463;-88
2022/03/30 10:03:56;;;;;;;68.63;44.42;;;10.00;72.60;;;;;;6215452;23;20027;-88
2022/03/30 10:06:29;;;;;;;60.95;42.50;;;10.00;72.60;;;;;;6215573;23;20020;-89
2022/03/30 10:09:03;;;;;;;59.45;43.15;;;10.00;72.70;;;;;;6215479;23;20096;-88
2022/03/30 10:11:30;;;;;;;61.58;42.85;;;10.00;72.70;;;;;;6188761;23;20052;-88
2022/03/30 10:14:03;;;;;;;65.40;42.95;;;10.00;72.70;;;;;;6215059;23;20475;-88
2022/03/30 10:16:42;;;;;;;61.33;41.50;;;10.00;72.70;;;;;;6215531;23;20091;-89
2022/03/30 10:19:09;;;;;;;63.65;42.22;;;10.10;72.70;;;;;;6215568;23;20021;-88
2022/03/30 10:21:55;;;;;;;59.75;41.55;;;10.00;72.70;;;;;;6215423;23;20021;-88
2022/03/30 10:24:41;;;;;;;67.82;45.85;;;10.00;72.80;;;;;;6188962;23;20083;-88
2022/03/30 10:27:22;;;;;;;68.78;43.83;;;10.00;72.90;;;;;;6215038;23;20094;-88
2022/03/30 10:29:55;;;;;;;59.75;43.67;;;10.10;72.90;;;;;;6188606;23;20024;-88
2022/03/30 10:32:31;;;;;;;67.55;43.75;;;10.10;72.80;;;;;;6215334;23;20021;-88
2022/03/30 10:35:06;;;;;;;57.58;41.90;;;10.10;72.80;;;;;;6214863;23;20423;-88
2022/03/30 10:37:55;;;;;;;62.88;43.58;;;10.10;72.70;;;;;;6214828;23;20032;-89
2022/03/30 10:40:28;;;;;;;60.67;40.93;;;10.10;72.70;;;;;;6214439;23;20025;-89
2022/03/30 10:42:58;;;;;;;57.38;40.63;;;10.10;72.70;;;;;;6215312;23;20252;-89
2022/03/30 10:45:46;;;;;;;65.88;41.72;;;10.10;72.70;;;;;;6188764;23;20048;-88
2022/03/30 10:48:19;;;;;;;62.28;40.67;;;10.10;72.50;;;;;;6188597;23;20020;-88
2022/03/30 10:51:15;;;;;;;60.42;40.28;;;10.10;72.50;;;;;;6188825;23;20020;-89
2022/03/30 10:53:52;;;;;;;55.80;40.55;;;10.10;72.40;;;;;;6215034;23;20394;-88
2022/03/30 10:56:19;;;;;;;54.75;40.03;;;10.10;72.40;;;;;;6188677;23;20348;-88
2022/03/30 10:58:48;;;;;;;61.55;39.63;;;10.20;72.40;;;;;;6215058;23;20024;-88
2022/03/30 11:01:25;;;;;;;52.00;38.25;;;10.20;72.30;;;;;;6214755;23;20079;-88
2022/03/30 11:04:13;;;;;;;49.65;37.97;;;10.20;72.30;;;;;;6214296;23;20100;-88
2022/03/30 11:06:44;;;;;;;55.35;40.50;;;10.20;72.30;;;;;;6214972;23;20467;-88
2022/03/30 11:09:25;;;;;;;61.65;39.00;;;10.20;72.30;;;;;;6214130;23;20402;-88
2022/03/30 11:12:12;;;;;;;55.22;39.00;;;10.30;72.20;;;;;;6215023;23;20028;-87
2022/03/30 11:14:46;;;;;;;60.67;39.20;;;10.20;72.20;;;;;;6188663;23;20016;-88
2022/03/30 11:17:16;;;;;;;60.42;39.42;;;10.30;72.20;;;;;;6214541;23;20025;-87
2022/03/30 11:19:58;;;;;;;57.85;38.95;;;10.30;72.20;;;;;;6214913;23;20029;-87
2022/03/30 11:22:32;;;;;;;51.88;37.45;;;10.30;72.20;;;;;;6214148;23;20020;-88
2022/03/30 11:25:13;;;;;;;50.88;36.85;;;10.30;72.10;;;;;;6188253;23;20104;-86
2022/03/30 11:27:41;;;;;;;53.90;37.47;;;10.30;72.10;;;;;;6214949;23;20025;-87
2022/03/30 11:30:11;;;;;;;52.65;36.67;;;10.40;72.10;;;;;;6214723;23;20023;-88
2022/03/30 11:32:58;;;;;;;49.75;35.58;;;10.30;72.10;;;;;;6188313;23;20040;-87
2022/03/30 11:35:31;;;;;;;54.78;36.42;;;10.40;72.10;;;;;;6214343;23;20016;-87
2022/03/30 11:38:08;;;;;;;51.38;37.13;;;10.40;72.00;;;;;;6187961;23;20541;-87
2022/03/30 11:40:37;;;;;;;56.20;35.22;;;10.40;72.00;;;;;;6214342;23;20024;-88
2022/03/30 11:43:04;;;;;;;59.28;35.92;;;10.40;72.00;;;;;;6214914;23;20021;-88
2022/03/30 11:45:52;;;;;;;51.90;34.17;;;10.40;72.00;;;;;;6214279;23;20066;-87
2022/03/30 11:48:20;;;;;;;49.15;35.40;;;10.40;72.00;;;;;;6214677;23;20016;-87
2022/03/30 11:50:50;;;;;;;58.28;36.22;;;10.50;72.00;;;;;;6214553;23;20020;-86
2022/03/30 11:53:25;;;;;;;50.10;34.60;;;10.50;72.00;;;;;;6188124;23;20017;-87
2022/03/30 11:56:06;;;;;;;48.25;35.05;;;10.60;71.90;;;;;;6214719;23;20024;-87
2022/03/30 11:58:36;;;;;;;51.78;35.75;;;10.50;71.90;;;;;;6188060;23;20071;-87
2022/03/30 12:01:15;;;;;;;48.92;33.75;;;10.60;71.80;;;;;;6214401;23;20025;-88
2022/03/30 12:03:42;;;;;;;45.78;32.72;;;10.60;71.80;;;;;;6188139;23;20028;-87
2022/03/30 12:06:11;;;;;;;47.20;34.00;;;10.60;71.70;;;;;;6214583;23;20064;-88
2022/03/30 12:08:43;;;;;;;46.28;34.03;;;10.60;71.60;;;;;;6187558;23;20025;-87
2022/03/30 12:11:10;;;;;;;53.42;33.88;;;10.70;71.60;;;;;;6214635;23;20021;-88
2022/03/30 12:13:38;;;;;;;47.40;33.53;;;10.70;71.50;;;;;;6188339;23;20017;-87
2022/03/30 12:16:12;;;;;;;46.42;32.15;;;10.70;71.40;;;;;;6187862;23;20017;-87
2022/03/30 12:18:54;;;;;;;51.05;34.03;;;10.70;71.30;;;;;;6214241;23;20402;-87
2022/03/30 12:21:22;;;;;;;47.72;34.40;;;10.80;71.20;;;;;;6214109;23;20020;-88
2022/03/30 12:23:54;;;;;;;45.17;31.67;;;10.80;71.00;;;;;;6187723;23;20395;-87
2022/03/30 12:26:41;;;;;;;45.20;31.83;;;10.80;70.90;;;;;;6214168;23;20020;-88
2022/03/30 12:29:16;;;;;;;45.63;32.50;;;10.90;70.80;;;;;;6214248;23;20497;-88
2022/03/30 12:31:54;;;;;;;52.17;32.70;;;10.80;70.70;;;;;;6188307;23;20020;-88
2022/03/30 12:34:25;;;;;;;46.35;32.70;;;10.90;70.60;;;;;;6214017;23;20028;-87
2022/03/30 12:37:01;;;;;;;47.28;33.25;;;10.90;70.60;;;;;;6214186;23;20021;-88
2022/03/30 12:39:44;;;;;;;44.03;32.35;;;10.90;70.50;;;;;;6214362;23;20040;-88
2022/03/30 12:42:25;;;;;;;42.13;30.67;;;10.90;70.40;;;;;;6189392;23;20028;-87
2022/03/30 12:45:00;;;;;;;43.38;30.85;;;10.90;70.30;;;;;;6215858;23;20021;-88
2022/03/30 12:47:33;;;;;;;47.33;30.20;;;10.90;70.10;;;;;;6215881;23;20541;-86
2022/03/30 12:50:05;;;;;;;50.35;32.15;;;10.90;69.90;;;;;;6189435;23;20029;-88
2022/03/30 12:52:40;;;;;;;45.83;31.27;;;10.90;69.80;;;;;;6216314;23;20359;-88